sensor_id;sensor_type;location;lat;lon;timestamp;P1;durP1;ratioP1;P2;durP2;ratioP2
68234;SDS011;55052;52.056;5.296;2023-04-15T00:04:54;12.77;;;5.75;;
68234;SDS011;55052;52.056;5.296;2023-04-15T00:07:21;11.07;;;5.10;;
68234;SDS011;55052;52.056;5.296;2023-04-15T00:09:48;8.65;;;4.97;;
68234;SDS011;55052;52.056;5.296;2023-04-15T00:12:20;8.70;;;5.40;;
68234;SDS011;55052;52.056;5.296;2023-04-15T00:14:47;9.43;;;5.22;;
68234;SDS011;55052;52.056;5.296;2023-04-15T00:17:19;8.93;;;5.05;;
68234;SDS011;55052;52.056;5.296;2023-04-15T00:19:46;11.63;;;5.07;;
68234;SDS011;55052;52.056;5.296;2023-04-15T00:22:16;9.93;;;6.13;;
68234;SDS011;55052;52.056;5.296;2023-04-15T00:24:43;11.90;;;5.60;;
68234;SDS011;55052;52.056;5.296;2023-04-15T00:27:10;9.20;;;5.55;;
68234;SDS011;55052;52.056;5.296;2023-04-15T00:29:37;10.23;;;5.43;;
68234;SDS011;55052;52.056;5.296;2023-04-15T00:32:04;9.95;;;5.25;;
68234;SDS011;55052;52.056;5.296;2023-04-15T00:34:31;11.13;;;5.88;;
68234;SDS011;55052;52.056;5.296;2023-04-15T00:36:59;16.10;;;6.57;;
68234;SDS011;55052;52.056;5.296;2023-04-15T00:39:26;10.43;;;5.93;;
68234;SDS011;55052;52.056;5.296;2023-04-15T00:41:53;13.60;;;5.85;;
68234;SDS011;55052;52.056;5.296;2023-04-15T00:44:21;14.20;;;7.38;;
68234;SDS011;55052;52.056;5.296;2023-04-15T00:46:50;12.55;;;6.88;;
68234;SDS011;55052;52.056;5.296;2023-04-15T00:49:17;13.48;;;6.97;;
68234;SDS011;55052;52.056;5.296;2023-04-15T00:51:44;11.75;;;6.75;;
68234;SDS011;55052;52.056;5.296;2023-04-15T00:54:11;13.13;;;7.32;;
68234;SDS011;55052;52.056;5.296;2023-04-15T00:56:38;13.95;;;7.90;;
68234;SDS011;55052;52.056;5.296;2023-04-15T00:59:06;14.65;;;7.22;;
68234;SDS011;55052;52.056;5.296;2023-04-15T01:01:34;14.52;;;7.97;;
68234;SDS011;55052;52.056;5.296;2023-04-15T01:04:03;13.67;;;7.17;;
68234;SDS011;55052;52.056;5.296;2023-04-15T01:06:31;12.20;;;7.18;;
68234;SDS011;55052;52.056;5.296;2023-04-15T01:08:58;11.32;;;6.28;;
68234;SDS011;55052;52.056;5.296;2023-04-15T01:11:26;12.30;;;6.88;;
68234;SDS011;55052;52.056;5.296;2023-04-15T01:13:54;13.85;;;6.47;;
68234;SDS011;55052;52.056;5.296;2023-04-15T01:16:22;14.82;;;6.85;;
68234;SDS011;55052;52.056;5.296;2023-04-15T01:18:50;10.38;;;6.25;;
68234;SDS011;55052;52.056;5.296;2023-04-15T01:21:17;11.93;;;5.90;;
68234;SDS011;55052;52.056;5.296;2023-04-15T01:23:46;11.10;;;6.03;;
68234;SDS011;55052;52.056;5.296;2023-04-15T01:26:16;11.35;;;6.22;;
68234;SDS011;55052;52.056;5.296;2023-04-15T01:28:43;12.57;;;6.70;;
68234;SDS011;55052;52.056;5.296;2023-04-15T01:31:11;10.93;;;6.30;;
68234;SDS011;55052;52.056;5.296;2023-04-15T01:33:40;9.63;;;6.00;;
68234;SDS011;55052;52.056;5.296;2023-04-15T01:36:08;9.95;;;6.10;;
68234;SDS011;55052;52.056;5.296;2023-04-15T01:38:36;11.32;;;6.00;;
68234;SDS011;55052;52.056;5.296;2023-04-15T01:41:04;8.52;;;5.55;;
68234;SDS011;55052;52.056;5.296;2023-04-15T01:43:33;8.10;;;6.07;;
68234;SDS011;55052;52.056;5.296;2023-04-15T01:46:04;10.63;;;5.75;;
68234;SDS011;55052;52.056;5.296;2023-04-15T01:48:32;9.85;;;6.65;;
68234;SDS011;55052;52.056;5.296;2023-04-15T01:50:59;11.27;;;6.00;;
68234;SDS011;55052;52.056;5.296;2023-04-15T01:53:27;12.07;;;6.03;;
68234;SDS011;55052;52.056;5.296;2023-04-15T01:55:54;11.65;;;6.20;;
68234;SDS011;55052;52.056;5.296;2023-04-15T01:58:21;13.20;;;6.30;;
68234;SDS011;55052;52.056;5.296;2023-04-15T02:00:48;10.85;;;6.43;;
68234;SDS011;55052;52.056;5.296;2023-04-15T02:03:16;9.55;;;5.95;;
68234;SDS011;55052;52.056;5.296;2023-04-15T02:05:43;9.45;;;5.80;;
68234;SDS011;55052;52.056;5.296;2023-04-15T02:08:10;13.88;;;6.57;;
68234;SDS011;55052;52.056;5.296;2023-04-15T02:10:37;10.05;;;6.20;;
68234;SDS011;55052;52.056;5.296;2023-04-15T02:13:04;10.45;;;5.88;;
68234;SDS011;55052;52.056;5.296;2023-04-15T02:15:31;11.35;;;5.75;;
68234;SDS011;55052;52.056;5.296;2023-04-15T02:17:58;11.60;;;6.03;;
68234;SDS011;55052;52.056;5.296;2023-04-15T02:20:27;11.80;;;6.30;;
68234;SDS011;55052;52.056;5.296;2023-04-15T02:22:55;9.38;;;5.75;;
68234;SDS011;55052;52.056;5.296;2023-04-15T02:25:22;9.40;;;6.30;;
68234;SDS011;55052;52.056;5.296;2023-04-15T02:27:49;9.88;;;6.13;;
68234;SDS011;55052;52.056;5.296;2023-04-15T02:30:16;11.15;;;6.25;;
68234;SDS011;55052;52.056;5.296;2023-04-15T02:32:43;15.32;;;6.68;;
68234;SDS011;55052;52.056;5.296;2023-04-15T02:35:11;13.35;;;6.20;;
68234;SDS011;55052;52.056;5.296;2023-04-15T02:37:38;10.57;;;6.65;;
68234;SDS011;55052;52.056;5.296;2023-04-15T02:40:11;12.95;;;6.40;;
68234;SDS011;55052;52.056;5.296;2023-04-15T02:45:14;10.52;;;5.90;;
68234;SDS011;55052;52.056;5.296;2023-04-15T02:47:49;10.32;;;5.93;;
68234;SDS011;55052;52.056;5.296;2023-04-15T02:50:17;9.82;;;6.40;;
68234;SDS011;55052;52.056;5.296;2023-04-15T02:52:45;11.90;;;6.53;;
68234;SDS011;55052;52.056;5.296;2023-04-15T02:55:12;10.05;;;5.90;;
68234;SDS011;55052;52.056;5.296;2023-04-15T02:57:39;10.88;;;6.30;;
68234;SDS011;55052;52.056;5.296;2023-04-15T03:00:07;10.13;;;6.45;;
68234;SDS011;55052;52.056;5.296;2023-04-15T03:02:37;9.75;;;5.65;;
68234;SDS011;55052;52.056;5.296;2023-04-15T03:05:11;9.40;;;5.70;;
68234;SDS011;55052;52.056;5.296;2023-04-15T03:07:39;11.43;;;6.65;;
68234;SDS011;55052;52.056;5.296;2023-04-15T03:10:06;12.23;;;6.78;;
68234;SDS011;55052;52.056;5.296;2023-04-15T03:12:34;9.40;;;6.22;;
68234;SDS011;55052;52.056;5.296;2023-04-15T03:15:01;10.27;;;6.40;;
68234;SDS011;55052;52.056;5.296;2023-04-15T03:17:28;12.45;;;6.57;;
68234;SDS011;55052;52.056;5.296;2023-04-15T03:19:56;12.27;;;5.88;;
68234;SDS011;55052;52.056;5.296;2023-04-15T03:22:23;13.30;;;6.50;;
68234;SDS011;55052;52.056;5.296;2023-04-15T03:24:51;9.63;;;5.80;;
68234;SDS011;55052;52.056;5.296;2023-04-15T03:27:18;9.52;;;6.43;;
68234;SDS011;55052;52.056;5.296;2023-04-15T03:29:45;8.82;;;6.18;;
68234;SDS011;55052;52.056;5.296;2023-04-15T03:32:12;11.93;;;6.07;;
68234;SDS011;55052;52.056;5.296;2023-04-15T03:34:40;9.55;;;5.90;;
68234;SDS011;55052;52.056;5.296;2023-04-15T03:37:07;9.93;;;6.53;;
68234;SDS011;55052;52.056;5.296;2023-04-15T03:39:34;11.45;;;6.57;;
68234;SDS011;55052;52.056;5.296;2023-04-15T03:42:04;10.85;;;5.93;;
68234;SDS011;55052;52.056;5.296;2023-04-15T03:44:31;12.02;;;6.10;;
68234;SDS011;55052;52.056;5.296;2023-04-15T03:46:59;10.05;;;6.00;;
68234;SDS011;55052;52.056;5.296;2023-04-15T03:49:26;10.23;;;5.82;;
68234;SDS011;55052;52.056;5.296;2023-04-15T03:51:53;11.32;;;6.47;;
68234;SDS011;55052;52.056;5.296;2023-04-15T03:54:20;12.35;;;6.75;;
68234;SDS011;55052;52.056;5.296;2023-04-15T03:56:47;11.25;;;5.90;;
68234;SDS011;55052;52.056;5.296;2023-04-15T03:59:14;10.60;;;5.60;;
68234;SDS011;55052;52.056;5.296;2023-04-15T04:01:42;10.00;;;6.25;;
68234;SDS011;55052;52.056;5.296;2023-04-15T04:04:09;8.43;;;6.28;;
68234;SDS011;55052;52.056;5.296;2023-04-15T04:06:36;10.63;;;6.43;;
68234;SDS011;55052;52.056;5.296;2023-04-15T04:09:03;11.27;;;6.43;;
68234;SDS011;55052;52.056;5.296;2023-04-15T04:11:30;11.02;;;6.43;;
68234;SDS011;55052;52.056;5.296;2023-04-15T04:13:58;13.90;;;6.63;;
68234;SDS011;55052;52.056;5.296;2023-04-15T04:16:25;10.25;;;6.10;;
68234;SDS011;55052;52.056;5.296;2023-04-15T04:18:52;12.52;;;6.63;;
68234;SDS011;55052;52.056;5.296;2023-04-15T04:21:19;12.07;;;6.22;;
68234;SDS011;55052;52.056;5.296;2023-04-15T04:23:46;9.10;;;6.25;;
68234;SDS011;55052;52.056;5.296;2023-04-15T04:26:13;11.27;;;6.70;;
68234;SDS011;55052;52.056;5.296;2023-04-15T04:28:40;9.68;;;6.25;;
68234;SDS011;55052;52.056;5.296;2023-04-15T04:31:07;12.40;;;6.50;;
68234;SDS011;55052;52.056;5.296;2023-04-15T04:33:34;11.02;;;6.78;;
68234;SDS011;55052;52.056;5.296;2023-04-15T04:36:01;12.38;;;7.05;;
68234;SDS011;55052;52.056;5.296;2023-04-15T04:38:28;10.48;;;6.32;;
68234;SDS011;55052;52.056;5.296;2023-04-15T04:40:55;10.65;;;7.07;;
68234;SDS011;55052;52.056;5.296;2023-04-15T04:43:22;11.38;;;6.72;;
68234;SDS011;55052;52.056;5.296;2023-04-15T04:45:49;15.38;;;7.22;;
68234;SDS011;55052;52.056;5.296;2023-04-15T04:48:16;14.63;;;6.47;;
68234;SDS011;55052;52.056;5.296;2023-04-15T04:50:43;10.02;;;6.38;;
68234;SDS011;55052;52.056;5.296;2023-04-15T04:53:12;12.13;;;6.68;;
68234;SDS011;55052;52.056;5.296;2023-04-15T04:55:39;11.18;;;6.68;;
68234;SDS011;55052;52.056;5.296;2023-04-15T04:58:05;11.60;;;6.68;;
68234;SDS011;55052;52.056;5.296;2023-04-15T05:00:32;12.38;;;6.85;;
68234;SDS011;55052;52.056;5.296;2023-04-15T05:03:00;11.15;;;6.72;;
68234;SDS011;55052;52.056;5.296;2023-04-15T05:05:27;10.52;;;6.57;;
68234;SDS011;55052;52.056;5.296;2023-04-15T05:07:54;11.95;;;6.80;;
68234;SDS011;55052;52.056;5.296;2023-04-15T05:10:20;11.63;;;6.35;;
68234;SDS011;55052;52.056;5.296;2023-04-15T05:12:47;12.77;;;6.95;;
68234;SDS011;55052;52.056;5.296;2023-04-15T05:15:15;10.80;;;6.40;;
68234;SDS011;55052;52.056;5.296;2023-04-15T05:17:42;14.63;;;7.00;;
68234;SDS011;55052;52.056;5.296;2023-04-15T05:20:10;9.57;;;6.40;;
68234;SDS011;55052;52.056;5.296;2023-04-15T05:22:37;11.00;;;6.80;;
68234;SDS011;55052;52.056;5.296;2023-04-15T05:25:04;14.50;;;7.00;;
68234;SDS011;55052;52.056;5.296;2023-04-15T05:27:31;11.60;;;6.95;;
68234;SDS011;55052;52.056;5.296;2023-04-15T05:29:58;10.45;;;6.68;;
68234;SDS011;55052;52.056;5.296;2023-04-15T05:32:25;11.88;;;6.60;;
68234;SDS011;55052;52.056;5.296;2023-04-15T05:34:52;10.90;;;6.60;;
68234;SDS011;55052;52.056;5.296;2023-04-15T05:37:19;10.27;;;7.07;;
68234;SDS011;55052;52.056;5.296;2023-04-15T05:39:47;10.80;;;6.55;;
68234;SDS011;55052;52.056;5.296;2023-04-15T05:42:15;9.23;;;6.30;;
68234;SDS011;55052;52.056;5.296;2023-04-15T05:44:42;9.45;;;6.88;;
68234;SDS011;55052;52.056;5.296;2023-04-15T05:47:09;10.57;;;6.63;;
68234;SDS011;55052;52.056;5.296;2023-04-15T05:49:36;12.50;;;7.13;;
68234;SDS011;55052;52.056;5.296;2023-04-15T05:52:03;11.23;;;7.07;;
68234;SDS011;55052;52.056;5.296;2023-04-15T05:54:30;9.65;;;6.45;;
68234;SDS011;55052;52.056;5.296;2023-04-15T05:56:57;14.60;;;7.07;;
68234;SDS011;55052;52.056;5.296;2023-04-15T05:59:24;12.98;;;6.90;;
68234;SDS011;55052;52.056;5.296;2023-04-15T06:01:51;13.73;;;7.07;;
68234;SDS011;55052;52.056;5.296;2023-04-15T06:04:19;10.63;;;7.35;;
68234;SDS011;55052;52.056;5.296;2023-04-15T06:06:46;10.55;;;6.80;;
68234;SDS011;55052;52.056;5.296;2023-04-15T06:09:13;13.00;;;6.75;;
68234;SDS011;55052;52.056;5.296;2023-04-15T06:11:40;13.05;;;7.60;;
68234;SDS011;55052;52.056;5.296;2023-04-15T06:14:07;11.73;;;6.40;;
68234;SDS011;55052;52.056;5.296;2023-04-15T06:16:34;10.15;;;6.78;;
68234;SDS011;55052;52.056;5.296;2023-04-15T06:19:02;12.35;;;6.47;;
68234;SDS011;55052;52.056;5.296;2023-04-15T06:21:29;11.15;;;6.78;;
68234;SDS011;55052;52.056;5.296;2023-04-15T06:23:57;11.60;;;6.82;;
68234;SDS011;55052;52.056;5.296;2023-04-15T06:26:26;10.88;;;6.95;;
68234;SDS011;55052;52.056;5.296;2023-04-15T06:28:54;10.05;;;7.10;;
68234;SDS011;55052;52.056;5.296;2023-04-15T06:31:20;10.85;;;6.80;;
68234;SDS011;55052;52.056;5.296;2023-04-15T06:33:48;14.50;;;7.53;;
68234;SDS011;55052;52.056;5.296;2023-04-15T06:36:15;10.75;;;6.70;;
68234;SDS011;55052;52.056;5.296;2023-04-15T06:38:42;11.43;;;7.40;;
68234;SDS011;55052;52.056;5.296;2023-04-15T06:41:09;13.68;;;8.10;;
68234;SDS011;55052;52.056;5.296;2023-04-15T06:43:39;13.82;;;8.23;;
68234;SDS011;55052;52.056;5.296;2023-04-15T06:46:06;12.32;;;7.40;;
68234;SDS011;55052;52.056;5.296;2023-04-15T06:48:33;12.73;;;7.05;;
68234;SDS011;55052;52.056;5.296;2023-04-15T06:51:00;11.55;;;7.78;;
68234;SDS011;55052;52.056;5.296;2023-04-15T06:53:27;12.57;;;7.18;;
68234;SDS011;55052;52.056;5.296;2023-04-15T06:55:54;13.80;;;7.90;;
68234;SDS011;55052;52.056;5.296;2023-04-15T06:58:21;15.65;;;8.15;;
68234;SDS011;55052;52.056;5.296;2023-04-15T07:00:48;12.55;;;7.78;;
68234;SDS011;55052;52.056;5.296;2023-04-15T07:03:16;10.45;;;7.13;;
68234;SDS011;55052;52.056;5.296;2023-04-15T07:05:43;11.55;;;8.10;;
68234;SDS011;55052;52.056;5.296;2023-04-15T07:08:11;14.32;;;7.78;;
68234;SDS011;55052;52.056;5.296;2023-04-15T07:10:38;14.55;;;7.75;;
68234;SDS011;55052;52.056;5.296;2023-04-15T07:13:05;14.60;;;8.52;;
68234;SDS011;55052;52.056;5.296;2023-04-15T07:15:34;11.32;;;7.90;;
68234;SDS011;55052;52.056;5.296;2023-04-15T07:18:01;13.13;;;8.05;;
68234;SDS011;55052;52.056;5.296;2023-04-15T07:20:28;15.40;;;8.13;;
68234;SDS011;55052;52.056;5.296;2023-04-15T07:22:55;13.82;;;8.43;;
68234;SDS011;55052;52.056;5.296;2023-04-15T07:25:22;13.52;;;8.52;;
68234;SDS011;55052;52.056;5.296;2023-04-15T07:27:49;15.85;;;8.65;;
68234;SDS011;55052;52.056;5.296;2023-04-15T07:30:18;16.23;;;8.52;;
68234;SDS011;55052;52.056;5.296;2023-04-15T07:32:45;13.05;;;7.97;;
68234;SDS011;55052;52.056;5.296;2023-04-15T07:35:12;11.60;;;7.60;;
68234;SDS011;55052;52.056;5.296;2023-04-15T07:37:40;11.52;;;7.57;;
68234;SDS011;55052;52.056;5.296;2023-04-15T07:40:08;12.85;;;7.80;;
68234;SDS011;55052;52.056;5.296;2023-04-15T07:42:36;12.48;;;7.05;;
68234;SDS011;55052;52.056;5.296;2023-04-15T07:47:47;10.45;;;6.63;;
68234;SDS011;55052;52.056;5.296;2023-04-15T07:50:14;10.43;;;6.50;;
68234;SDS011;55052;52.056;5.296;2023-04-15T07:52:42;9.82;;;6.00;;
68234;SDS011;55052;52.056;5.296;2023-04-15T07:55:12;10.57;;;6.20;;
68234;SDS011;55052;52.056;5.296;2023-04-15T07:57:39;8.80;;;5.72;;
68234;SDS011;55052;52.056;5.296;2023-04-15T08:00:09;9.98;;;6.43;;
68234;SDS011;55052;52.056;5.296;2023-04-15T08:02:37;9.82;;;6.30;;
68234;SDS011;55052;52.056;5.296;2023-04-15T08:05:05;9.57;;;6.22;;
68234;SDS011;55052;52.056;5.296;2023-04-15T08:07:33;10.93;;;5.93;;
68234;SDS011;55052;52.056;5.296;2023-04-15T08:10:02;9.57;;;6.10;;
68234;SDS011;55052;52.056;5.296;2023-04-15T08:12:29;9.40;;;6.40;;
68234;SDS011;55052;52.056;5.296;2023-04-15T08:14:56;9.13;;;5.78;;
68234;SDS011;55052;52.056;5.296;2023-04-15T08:17:24;10.35;;;6.05;;
68234;SDS011;55052;52.056;5.296;2023-04-15T08:19:51;9.85;;;5.78;;
68234;SDS011;55052;52.056;5.296;2023-04-15T08:22:19;8.68;;;5.70;;
68234;SDS011;55052;52.056;5.296;2023-04-15T08:24:47;10.70;;;5.80;;
68234;SDS011;55052;52.056;5.296;2023-04-15T08:27:15;8.43;;;5.20;;
68234;SDS011;55052;52.056;5.296;2023-04-15T08:29:42;8.63;;;5.38;;
68234;SDS011;55052;52.056;5.296;2023-04-15T08:32:10;9.70;;;5.68;;
68234;SDS011;55052;52.056;5.296;2023-04-15T08:34:38;9.23;;;5.40;;
68234;SDS011;55052;52.056;5.296;2023-04-15T08:37:05;8.73;;;5.50;;
68234;SDS011;55052;52.056;5.296;2023-04-15T08:39:32;8.63;;;5.18;;
68234;SDS011;55052;52.056;5.296;2023-04-15T08:42:00;9.40;;;5.07;;
68234;SDS011;55052;52.056;5.296;2023-04-15T08:44:28;10.40;;;4.80;;
68234;SDS011;55052;52.056;5.296;2023-04-15T08:47:02;9.48;;;5.40;;
68234;SDS011;55052;52.056;5.296;2023-04-15T08:49:34;8.82;;;4.40;;
68234;SDS011;55052;52.056;5.296;2023-04-15T08:52:06;6.93;;;3.97;;
68234;SDS011;55052;52.056;5.296;2023-04-15T08:54:34;5.82;;;3.63;;
68234;SDS011;55052;52.056;5.296;2023-04-15T08:57:01;6.03;;;3.58;;
68234;SDS011;55052;52.056;5.296;2023-04-15T08:59:29;7.05;;;3.55;;
68234;SDS011;55052;52.056;5.296;2023-04-15T09:01:57;6.18;;;3.40;;
68234;SDS011;55052;52.056;5.296;2023-04-15T09:04:24;7.28;;;3.40;;
68234;SDS011;55052;52.056;5.296;2023-04-15T09:06:51;7.38;;;3.30;;
68234;SDS011;55052;52.056;5.296;2023-04-15T09:09:18;5.47;;;3.58;;
68234;SDS011;55052;52.056;5.296;2023-04-15T09:11:45;7.22;;;3.80;;
68234;SDS011;55052;52.056;5.296;2023-04-15T09:14:12;7.65;;;3.65;;
68234;SDS011;55052;52.056;5.296;2023-04-15T09:16:58;8.82;;;4.20;;
68234;SDS011;55052;52.056;5.296;2023-04-15T09:19:26;6.55;;;3.58;;
68234;SDS011;55052;52.056;5.296;2023-04-15T09:21:54;6.68;;;3.92;;
68234;SDS011;55052;52.056;5.296;2023-04-15T09:24:24;6.28;;;3.13;;
68234;SDS011;55052;52.056;5.296;2023-04-15T09:26:58;7.55;;;4.10;;
68234;SDS011;55052;52.056;5.296;2023-04-15T09:29:26;6.88;;;4.35;;
68234;SDS011;55052;52.056;5.296;2023-04-15T09:31:53;8.85;;;4.50;;
68234;SDS011;55052;52.056;5.296;2023-04-15T09:34:20;7.72;;;4.28;;
68234;SDS011;55052;52.056;5.296;2023-04-15T09:37:00;7.77;;;3.87;;
68234;SDS011;55052;52.056;5.296;2023-04-15T09:39:27;7.35;;;3.13;;
68234;SDS011;55052;52.056;5.296;2023-04-15T09:42:15;5.18;;;3.15;;
68234;SDS011;55052;52.056;5.296;2023-04-15T09:44:49;5.00;;;3.10;;
68234;SDS011;55052;52.056;5.296;2023-04-15T09:47:51;5.38;;;3.03;;
68234;SDS011;55052;52.056;5.296;2023-04-15T09:50:11;5.88;;;2.95;;
68234;SDS011;55052;52.056;5.296;2023-04-15T09:52:41;6.63;;;2.60;;
68234;SDS011;55052;52.056;5.296;2023-04-15T09:55:09;5.25;;;2.95;;
68234;SDS011;55052;52.056;5.296;2023-04-15T09:57:37;5.50;;;3.10;;
68234;SDS011;55052;52.056;5.296;2023-04-15T10:00:07;6.22;;;3.15;;
68234;SDS011;55052;52.056;5.296;2023-04-15T10:02:36;5.80;;;3.42;;
68234;SDS011;55052;52.056;5.296;2023-04-15T10:05:09;6.90;;;3.45;;
68234;SDS011;55052;52.056;5.296;2023-04-15T10:07:39;7.18;;;3.47;;
68234;SDS011;55052;52.056;5.296;2023-04-15T10:10:08;6.85;;;3.47;;
68234;SDS011;55052;52.056;5.296;2023-04-15T10:12:36;7.07;;;3.33;;
68234;SDS011;55052;52.056;5.296;2023-04-15T10:15:06;6.47;;;2.92;;
68234;SDS011;55052;52.056;5.296;2023-04-15T10:17:40;6.90;;;3.75;;
68234;SDS011;55052;52.056;5.296;2023-04-15T10:20:10;7.68;;;3.55;;
68234;SDS011;55052;52.056;5.296;2023-04-15T10:22:39;5.82;;;3.42;;
68234;SDS011;55052;52.056;5.296;2023-04-15T10:25:08;5.53;;;3.05;;
68234;SDS011;55052;52.056;5.296;2023-04-15T10:27:38;5.55;;;3.15;;
68234;SDS011;55052;52.056;5.296;2023-04-15T10:30:07;5.38;;;3.13;;
68234;SDS011;55052;52.056;5.296;2023-04-15T10:32:34;7.10;;;3.45;;
68234;SDS011;55052;52.056;5.296;2023-04-15T10:35:05;6.25;;;3.40;;
68234;SDS011;55052;52.056;5.296;2023-04-15T10:37:36;6.45;;;3.90;;
68234;SDS011;55052;52.056;5.296;2023-04-15T10:40:26;6.90;;;4.00;;
68234;SDS011;55052;52.056;5.296;2023-04-15T10:42:56;4.82;;;3.00;;
68234;SDS011;55052;52.056;5.296;2023-04-15T10:45:35;6.20;;;3.55;;
68234;SDS011;55052;52.056;5.296;2023-04-15T10:48:03;5.57;;;3.22;;
68234;SDS011;55052;52.056;5.296;2023-04-15T10:50:32;6.10;;;3.13;;
68234;SDS011;55052;52.056;5.296;2023-04-15T10:53:01;4.85;;;3.15;;
68234;SDS011;55052;52.056;5.296;2023-04-15T10:55:33;6.05;;;3.17;;
68234;SDS011;55052;52.056;5.296;2023-04-15T10:58:00;4.90;;;3.10;;
68234;SDS011;55052;52.056;5.296;2023-04-15T11:00:29;5.93;;;3.42;;
68234;SDS011;55052;52.056;5.296;2023-04-15T11:02:58;6.28;;;3.70;;
68234;SDS011;55052;52.056;5.296;2023-04-15T11:08:16;6.55;;;3.95;;
68234;SDS011;55052;52.056;5.296;2023-04-15T11:15:38;6.18;;;3.65;;
68234;SDS011;55052;52.056;5.296;2023-04-15T11:18:08;7.43;;;3.60;;
68234;SDS011;55052;52.056;5.296;2023-04-15T11:20:40;7.30;;;3.70;;
68234;SDS011;55052;52.056;5.296;2023-04-15T11:23:14;6.40;;;3.60;;
68234;SDS011;55052;52.056;5.296;2023-04-15T11:25:43;5.13;;;3.00;;
68234;SDS011;55052;52.056;5.296;2023-04-15T11:28:11;6.55;;;3.08;;
68234;SDS011;55052;52.056;5.296;2023-04-15T11:30:39;5.05;;;2.90;;
68234;SDS011;55052;52.056;5.296;2023-04-15T11:33:08;5.32;;;2.90;;
68234;SDS011;55052;52.056;5.296;2023-04-15T11:35:39;4.97;;;3.08;;
68234;SDS011;55052;52.056;5.296;2023-04-15T11:40:36;9.00;;;2.50;;
68234;SDS011;55052;52.056;5.296;2023-04-15T11:43:10;3.63;;;2.28;;
68234;SDS011;55052;52.056;5.296;2023-04-15T11:45:52;5.18;;;2.80;;
68234;SDS011;55052;52.056;5.296;2023-04-15T11:48:24;3.92;;;2.30;;
68234;SDS011;55052;52.056;5.296;2023-04-15T11:50:53;4.67;;;2.40;;
68234;SDS011;55052;52.056;5.296;2023-04-15T11:53:21;4.80;;;2.65;;
68234;SDS011;55052;52.056;5.296;2023-04-15T11:55:50;4.40;;;2.53;;
68234;SDS011;55052;52.056;5.296;2023-04-15T11:58:19;4.97;;;2.25;;
68234;SDS011;55052;52.056;5.296;2023-04-15T12:11:39;3.78;;;2.20;;
68234;SDS011;55052;52.056;5.296;2023-04-15T12:16:52;4.72;;;1.95;;
68234;SDS011;55052;52.056;5.296;2023-04-15T12:19:24;5.47;;;2.10;;
68234;SDS011;55052;52.056;5.296;2023-04-15T12:22:14;4.00;;;2.13;;
68234;SDS011;55052;52.056;5.296;2023-04-15T12:24:43;4.38;;;2.00;;
68234;SDS011;55052;52.056;5.296;2023-04-15T12:29:41;3.50;;;1.80;;
68234;SDS011;55052;52.056;5.296;2023-04-15T12:32:12;4.50;;;2.00;;
68234;SDS011;55052;52.056;5.296;2023-04-15T12:34:49;3.70;;;2.00;;
68234;SDS011;55052;52.056;5.296;2023-04-15T12:37:17;3.95;;;1.90;;
68234;SDS011;55052;52.056;5.296;2023-04-15T12:39:45;4.15;;;2.10;;
68234;SDS011;55052;52.056;5.296;2023-04-15T12:42:14;2.67;;;1.90;;
68234;SDS011;55052;52.056;5.296;2023-04-15T12:44:41;4.95;;;2.10;;
68234;SDS011;55052;52.056;5.296;2023-04-15T12:47:09;5.10;;;1.98;;
68234;SDS011;55052;52.056;5.296;2023-04-15T12:49:36;4.82;;;1.92;;
68234;SDS011;55052;52.056;5.296;2023-04-15T12:52:04;4.78;;;2.17;;
68234;SDS011;55052;52.056;5.296;2023-04-15T12:54:32;3.83;;;2.10;;
68234;SDS011;55052;52.056;5.296;2023-04-15T12:56:59;5.00;;;2.25;;
68234;SDS011;55052;52.056;5.296;2023-04-15T12:59:31;5.00;;;2.10;;
68234;SDS011;55052;52.056;5.296;2023-04-15T13:01:58;4.50;;;2.20;;
68234;SDS011;55052;52.056;5.296;2023-04-15T13:04:26;3.75;;;2.05;;
68234;SDS011;55052;52.056;5.296;2023-04-15T13:06:56;4.55;;;2.22;;
68234;SDS011;55052;52.056;5.296;2023-04-15T13:09:23;5.30;;;2.15;;
68234;SDS011;55052;52.056;5.296;2023-04-15T13:11:50;3.65;;;1.70;;
68234;SDS011;55052;52.056;5.296;2023-04-15T13:14:18;3.30;;;1.58;;
68234;SDS011;55052;52.056;5.296;2023-04-15T13:16:45;5.15;;;1.90;;
68234;SDS011;55052;52.056;5.296;2023-04-15T13:19:12;4.88;;;1.95;;
68234;SDS011;55052;52.056;5.296;2023-04-15T13:21:39;5.45;;;2.60;;
68234;SDS011;55052;52.056;5.296;2023-04-15T13:24:06;7.88;;;2.95;;
68234;SDS011;55052;52.056;5.296;2023-04-15T13:26:34;6.88;;;2.30;;
68234;SDS011;55052;52.056;5.296;2023-04-15T13:29:01;5.47;;;2.00;;
68234;SDS011;55052;52.056;5.296;2023-04-15T13:31:28;4.03;;;1.75;;
68234;SDS011;55052;52.056;5.296;2023-04-15T13:33:55;3.35;;;1.77;;
68234;SDS011;55052;52.056;5.296;2023-04-15T13:36:22;4.28;;;1.77;;
68234;SDS011;55052;52.056;5.296;2023-04-15T13:38:49;4.03;;;2.10;;
68234;SDS011;55052;52.056;5.296;2023-04-15T13:41:17;5.43;;;2.00;;
68234;SDS011;55052;52.056;5.296;2023-04-15T13:43:44;3.83;;;1.92;;
68234;SDS011;55052;52.056;5.296;2023-04-15T13:46:11;4.70;;;2.17;;
68234;SDS011;55052;52.056;5.296;2023-04-15T13:48:38;4.80;;;1.80;;
68234;SDS011;55052;52.056;5.296;2023-04-15T13:51:05;4.05;;;1.90;;
68234;SDS011;55052;52.056;5.296;2023-04-15T13:53:32;7.15;;;2.05;;
68234;SDS011;55052;52.056;5.296;2023-04-15T13:56:08;3.80;;;1.98;;
68234;SDS011;55052;52.056;5.296;2023-04-15T13:58:35;4.25;;;1.98;;
68234;SDS011;55052;52.056;5.296;2023-04-15T14:01:03;7.60;;;2.15;;
68234;SDS011;55052;52.056;5.296;2023-04-15T14:03:35;3.58;;;1.98;;
68234;SDS011;55052;52.056;5.296;2023-04-15T14:06:04;4.18;;;1.80;;
68234;SDS011;55052;52.056;5.296;2023-04-15T14:08:31;3.17;;;1.52;;
68234;SDS011;55052;52.056;5.296;2023-04-15T14:10:58;5.88;;;1.92;;
68234;SDS011;55052;52.056;5.296;2023-04-15T14:13:25;5.65;;;1.70;;
68234;SDS011;55052;52.056;5.296;2023-04-15T14:15:52;3.90;;;1.95;;
68234;SDS011;55052;52.056;5.296;2023-04-15T14:18:19;5.60;;;1.95;;
68234;SDS011;55052;52.056;5.296;2023-04-15T14:20:46;3.28;;;1.60;;
68234;SDS011;55052;52.056;5.296;2023-04-15T14:23:13;4.05;;;1.50;;
68234;SDS011;55052;52.056;5.296;2023-04-15T14:25:40;3.92;;;1.83;;
68234;SDS011;55052;52.056;5.296;2023-04-15T14:28:07;3.47;;;1.50;;
68234;SDS011;55052;52.056;5.296;2023-04-15T14:30:34;2.95;;;1.60;;
68234;SDS011;55052;52.056;5.296;2023-04-15T14:33:01;2.88;;;1.80;;
68234;SDS011;55052;52.056;5.296;2023-04-15T14:35:28;4.07;;;1.73;;
68234;SDS011;55052;52.056;5.296;2023-04-15T14:37:55;7.05;;;2.08;;
68234;SDS011;55052;52.056;5.296;2023-04-15T14:40:22;6.82;;;1.92;;
68234;SDS011;55052;52.056;5.296;2023-04-15T14:42:49;4.82;;;2.42;;
68234;SDS011;55052;52.056;5.296;2023-04-15T14:45:16;5.70;;;2.00;;
68234;SDS011;55052;52.056;5.296;2023-04-15T14:47:43;7.60;;;2.00;;
68234;SDS011;55052;52.056;5.296;2023-04-15T14:50:10;4.72;;;1.90;;
68234;SDS011;55052;52.056;5.296;2023-04-15T14:52:37;8.30;;;2.30;;
68234;SDS011;55052;52.056;5.296;2023-04-15T14:55:05;4.55;;;1.80;;
68234;SDS011;55052;52.056;5.296;2023-04-15T14:57:33;6.47;;;1.67;;
68234;SDS011;55052;52.056;5.296;2023-04-15T15:00:00;3.78;;;1.50;;
68234;SDS011;55052;52.056;5.296;2023-04-15T15:02:27;4.93;;;1.70;;
68234;SDS011;55052;52.056;5.296;2023-04-15T15:05:04;10.32;;;3.28;;
68234;SDS011;55052;52.056;5.296;2023-04-15T15:07:32;4.43;;;1.92;;
68234;SDS011;55052;52.056;5.296;2023-04-15T15:09:59;5.32;;;1.90;;
68234;SDS011;55052;52.056;5.296;2023-04-15T15:12:26;4.43;;;1.65;;
68234;SDS011;55052;52.056;5.296;2023-04-15T15:14:53;4.88;;;1.90;;
68234;SDS011;55052;52.056;5.296;2023-04-15T15:17:21;3.65;;;1.60;;
68234;SDS011;55052;52.056;5.296;2023-04-15T15:19:48;5.30;;;1.50;;
68234;SDS011;55052;52.056;5.296;2023-04-15T15:22:15;9.00;;;1.80;;